Canyoncito, New Mexico
Current Conditions -  °F | °C
As of 5:53 AM on Thursday 27 Nov 2014 (Local Time) from KSAF Reporting Station
Clear Clear  
Wind Chill: 20°   Ceiling: Unl
Heat Index: 29°   Visibility: 10mi
Dew Point: 21°   Wind: 9mph
Humidity: 72%   Direction: 340°NNW
Pressure: 30.45"   Gusts: NA
Location:  35.6111°N, 105.774°W
Report Text: KSAF 271253Z AUTO 34008KT 10SM CLR M02/M06 A3045 RMK AO2 SLP300 T10171061
Loading
Personal Weather Stations






























Interactive Weather Map New forecast layout! Learn more

10-Day Weather Forecast

Advertisements
Track Severe Weather on mobile